createdAt,value
2022-10-07T00:00:47.772Z,6.30
2022-10-07T00:03:15.014Z,10.50
2022-10-07T00:05:42.154Z,7.70
2022-10-07T00:08:10.048Z,7.70
2022-10-07T00:10:40.863Z,5.40
2022-10-07T00:13:09.216Z,6.30
2022-10-07T00:15:41.296Z,7.80
2022-10-07T00:18:08.176Z,9.70
2022-10-07T00:20:39.492Z,8.00
2022-10-07T00:23:08.039Z,7.60
2022-10-07T00:25:37.932Z,7.00
2022-10-07T00:28:06.249Z,9.20
2022-10-07T00:30:33.456Z,8.70
2022-10-07T00:33:00.473Z,6.20
2022-10-07T00:35:27.879Z,5.70
2022-10-07T00:37:54.873Z,9.00
2022-10-07T00:40:22.309Z,7.00
2022-10-07T00:42:50.400Z,10.00
2022-10-07T00:45:19.488Z,7.80
2022-10-07T00:47:48.973Z,5.40
2022-10-07T00:50:19.360Z,5.00
2022-10-07T00:52:49.896Z,5.60
2022-10-07T00:55:19.298Z,6.60
2022-10-07T01:00:14.350Z,10.30
2022-10-07T01:02:43.730Z,7.50
2022-10-07T01:05:11.203Z,7.90
2022-10-07T01:07:39.282Z,8.20
2022-10-07T01:10:06.983Z,5.70
2022-10-07T01:12:51.773Z,6.60
2022-10-07T01:15:34.120Z,6.10
2022-10-07T01:18:10.465Z,5.30
2022-10-07T01:20:39.371Z,6.30
2022-10-07T01:23:18.421Z,6.50
2022-10-07T01:25:55.188Z,5.80
2022-10-07T01:28:31.020Z,5.60
2022-10-07T01:33:28.555Z,5.60
2022-10-07T01:35:57.439Z,5.40
2022-10-07T01:38:26.455Z,8.00
2022-10-07T01:41:06.734Z,6.30
2022-10-07T01:43:36.534Z,5.20
2022-10-07T01:46:03.491Z,7.20
2022-10-07T01:48:32.549Z,7.20
2022-10-07T01:51:02.279Z,6.90
2022-10-07T01:53:42.732Z,5.40
2022-10-07T01:56:40.903Z,5.90
2022-10-07T01:59:42.840Z,7.70
2022-10-07T02:02:34.427Z,4.60
2022-10-07T02:05:13.691Z,6.60
2022-10-07T02:08:09.812Z,6.90
2022-10-07T02:10:53.915Z,4.20
2022-10-07T02:13:36.592Z,3.50
2022-10-07T02:16:18.995Z,7.30
2022-10-07T02:18:49.256Z,5.00
2022-10-07T02:21:25.415Z,5.70
2022-10-07T02:23:52.292Z,5.50
2022-10-07T02:26:21.165Z,5.90
2022-10-07T02:28:51.041Z,4.80
2022-10-07T02:31:18.414Z,4.00
2022-10-07T02:33:47.200Z,7.50
2022-10-07T02:36:21.702Z,4.90
2022-10-07T02:38:48.735Z,3.90
2022-10-07T02:41:31.705Z,5.80
2022-10-07T02:44:26.001Z,7.70
2022-10-07T02:47:06.113Z,7.30
2022-10-07T02:49:38.457Z,5.60
2022-10-07T02:52:07.427Z,4.90
2022-10-07T02:54:39.456Z,5.80
2022-10-07T02:57:06.298Z,3.50
2022-10-07T02:59:33.400Z,3.40
2022-10-07T03:02:02.575Z,4.50
2022-10-07T03:04:29.690Z,6.30
2022-10-07T03:06:59.199Z,4.50
2022-10-07T03:09:27.078Z,5.10
2022-10-07T03:11:54.512Z,5.60
2022-10-07T03:14:22.395Z,6.00
2022-10-07T03:16:49.519Z,2.60
2022-10-07T03:19:16.675Z,3.90
2022-10-07T03:21:51.889Z,3.70
2022-10-07T03:24:19.503Z,3.90
2022-10-07T03:26:47.531Z,3.80
2022-10-07T03:29:15.282Z,4.40
2022-10-07T03:31:43.132Z,8.60
2022-10-07T03:34:12.981Z,5.20
2022-10-07T03:36:42.608Z,3.10
2022-10-07T03:41:37.299Z,2.60
2022-10-07T03:44:05.692Z,3.80
2022-10-07T03:46:33.197Z,4.90
2022-10-07T03:49:00.870Z,3.60
2022-10-07T03:51:28.664Z,3.40
2022-10-07T03:53:57.720Z,4.80
2022-10-07T03:56:26.909Z,4.00
2022-10-07T03:58:55.713Z,5.60
2022-10-07T04:01:23.787Z,5.90
2022-10-07T04:03:55.852Z,4.80
2022-10-07T04:06:24.344Z,4.00
2022-10-07T04:08:57.356Z,5.80
2022-10-07T04:11:29.793Z,4.30
2022-10-07T04:14:00.883Z,5.90
2022-10-07T04:16:28.625Z,4.70
2022-10-07T04:18:56.455Z,6.80
2022-10-07T04:21:24.356Z,3.50
2022-10-07T04:23:52.019Z,4.30
2022-10-07T04:26:19.675Z,5.30
2022-10-07T04:28:49.365Z,7.00
2022-10-07T04:31:19.037Z,6.70
2022-10-07T04:33:50.227Z,3.40
2022-10-07T04:36:21.449Z,4.60
2022-10-07T04:38:52.623Z,5.80
2022-10-07T04:41:24.501Z,3.50
2022-10-07T04:43:55.395Z,3.40
2022-10-07T04:46:26.162Z,2.50
2022-10-07T04:48:59.030Z,4.60
2022-10-07T04:51:27.286Z,3.30
2022-10-07T04:53:57.352Z,3.50
2022-10-07T04:56:36.135Z,5.90
2022-10-07T04:59:05.855Z,4.20
2022-10-07T05:01:33.310Z,5.80
2022-10-07T05:04:00.340Z,2.70
2022-10-07T05:06:28.380Z,3.40
2022-10-07T05:08:56.830Z,6.10
2022-10-07T05:11:26.121Z,4.60
2022-10-07T05:14:02.264Z,7.40
2022-10-07T05:16:30.362Z,7.40
2022-10-07T05:18:57.464Z,2.70
2022-10-07T05:21:25.030Z,3.20
2022-10-07T05:23:52.286Z,4.80
2022-10-07T05:26:23.430Z,3.20
2022-10-07T05:28:55.909Z,3.40
2022-10-07T05:31:28.310Z,3.30
2022-10-07T05:33:57.645Z,4.50
2022-10-07T05:36:25.882Z,3.60
2022-10-07T05:38:58.239Z,5.80
2022-10-07T05:41:29.244Z,5.10
2022-10-07T05:43:56.586Z,6.00
2022-10-07T05:46:24.069Z,2.80
2022-10-07T05:48:55.116Z,4.50
2022-10-07T05:51:25.236Z,6.60
2022-10-07T05:53:56.173Z,4.90
2022-10-07T05:56:25.881Z,5.80
2022-10-07T05:58:54.059Z,3.50
2022-10-07T06:01:23.116Z,5.20
2022-10-07T06:03:51.657Z,4.70
2022-10-07T06:06:19.593Z,5.30
2022-10-07T06:08:47.604Z,3.90
2022-10-07T06:11:34.422Z,4.30
2022-10-07T06:14:02.832Z,9.20
2022-10-07T06:16:30.162Z,6.30
2022-10-07T06:18:57.562Z,3.90
2022-10-07T06:21:28.401Z,7.10
2022-10-07T06:23:59.264Z,3.60
2022-10-07T06:26:29.863Z,7.60
2022-10-07T06:28:57.489Z,7.40
2022-10-07T06:31:26.072Z,6.70
2022-10-07T06:33:57.252Z,4.00
2022-10-07T06:36:24.431Z,5.30
2022-10-07T06:38:54.641Z,4.70
2022-10-07T06:41:26.251Z,4.30
2022-10-07T06:44:03.779Z,5.30
2022-10-07T06:46:31.440Z,9.90
2022-10-07T06:48:58.779Z,13.90
2022-10-07T06:51:26.099Z,5.50
2022-10-07T06:53:54.603Z,6.70
2022-10-07T06:56:21.685Z,4.30
2022-10-07T06:58:50.016Z,4.50
2022-10-07T07:01:21.065Z,3.80
2022-10-07T07:03:48.040Z,3.70
2022-10-07T07:06:16.109Z,5.10
2022-10-07T07:08:46.216Z,6.70
2022-10-07T07:11:32.719Z,8.40
2022-10-07T07:14:08.054Z,11.30
2022-10-07T07:16:35.972Z,7.30
2022-10-07T07:19:39.632Z,7.00
2022-10-07T07:22:08.296Z,6.00
2022-10-07T07:24:35.981Z,2.70
2022-10-07T07:27:05.162Z,2.50
2022-10-07T07:29:33.156Z,4.70
2022-10-07T07:32:01.397Z,5.30
2022-10-07T07:34:33.984Z,4.60
2022-10-07T07:37:00.933Z,4.30
2022-10-07T07:39:32.269Z,6.70
2022-10-07T07:42:06.273Z,3.30
2022-10-07T07:44:36.806Z,8.00
2022-10-07T07:47:04.466Z,4.80
2022-10-07T07:49:33.913Z,4.80
2022-10-07T07:52:01.687Z,5.10
2022-10-07T07:54:32.386Z,5.10
2022-10-07T07:57:00.411Z,4.00
2022-10-07T07:59:31.271Z,6.70
2022-10-07T08:01:59.204Z,11.50
2022-10-07T08:04:26.739Z,6.70
2022-10-07T08:06:55.722Z,7.20
2022-10-07T08:09:24.373Z,5.60
2022-10-07T08:11:54.247Z,3.70
2022-10-07T08:14:22.983Z,5.80
2022-10-07T08:16:50.405Z,4.10
2022-10-07T08:19:18.185Z,5.00
2022-10-07T08:21:45.538Z,4.40
2022-10-07T08:24:16.373Z,5.10
2022-10-07T08:29:13.258Z,3.50
2022-10-07T08:31:42.738Z,3.30
2022-10-07T08:34:10.717Z,6.60
2022-10-07T08:36:38.064Z,5.20
2022-10-07T08:39:05.223Z,5.10
2022-10-07T08:41:43.000Z,4.00
2022-10-07T08:44:32.487Z,7.10
2022-10-07T08:47:06.705Z,3.60
2022-10-07T08:49:37.484Z,5.00
2022-10-07T08:52:33.437Z,4.80
2022-10-07T08:55:52.810Z,8.00
2022-10-07T08:58:38.405Z,5.00
2022-10-07T09:02:00.154Z,5.00
2022-10-07T09:04:46.285Z,4.70
2022-10-07T09:07:16.016Z,5.60
2022-10-07T09:09:55.734Z,5.60
2022-10-07T09:12:44.635Z,2.50
2022-10-07T09:15:19.173Z,5.10
2022-10-07T09:17:55.997Z,9.40
2022-10-07T09:20:27.197Z,3.10
2022-10-07T09:22:57.473Z,3.60
2022-10-07T09:25:25.949Z,4.40
2022-10-07T09:27:54.547Z,3.50
2022-10-07T09:30:22.226Z,5.10
2022-10-07T09:32:50.776Z,6.00
2022-10-07T09:35:20.231Z,4.20
2022-10-07T09:37:58.424Z,6.40
2022-10-07T09:41:02.378Z,2.70
2022-10-07T09:43:32.977Z,3.90
2022-10-07T09:46:00.660Z,6.50
2022-10-07T09:48:29.234Z,4.30
2022-10-07T09:51:16.171Z,5.20
2022-10-07T09:56:39.711Z,3.30
2022-10-07T09:59:27.857Z,4.30
2022-10-07T10:01:55.289Z,6.10
2022-10-07T10:04:48.854Z,3.70
2022-10-07T10:07:19.543Z,4.00
2022-10-07T10:09:54.106Z,4.80
2022-10-07T10:12:26.389Z,4.50
2022-10-07T10:14:59.027Z,3.20
2022-10-07T10:17:39.208Z,3.80
2022-10-07T10:20:43.608Z,4.40
2022-10-07T10:23:35.958Z,5.90
2022-10-07T10:26:31.127Z,3.60
2022-10-07T10:29:03.268Z,4.70
2022-10-07T10:31:49.015Z,4.10
2022-10-07T10:34:21.654Z,3.10
2022-10-07T10:36:54.940Z,5.30
2022-10-07T10:39:40.410Z,2.80
2022-10-07T10:42:08.971Z,6.50
2022-10-07T10:47:36.851Z,3.40
2022-10-07T10:50:27.447Z,2.60
2022-10-07T10:53:17.919Z,3.90
2022-10-07T10:56:02.995Z,4.80
2022-10-07T10:58:55.715Z,6.10
2022-10-07T11:01:28.626Z,3.80
2022-10-07T11:04:17.360Z,3.50
2022-10-07T11:06:50.192Z,2.10
2022-10-07T11:09:30.773Z,4.50
2022-10-07T11:11:58.908Z,4.80
2022-10-07T11:14:30.130Z,4.10
2022-10-07T11:17:01.687Z,3.20
2022-10-07T11:19:34.897Z,3.70
2022-10-07T11:22:01.670Z,2.00
2022-10-07T11:24:34.830Z,2.50
2022-10-07T11:27:20.541Z,3.00
2022-10-07T11:30:18.731Z,3.40
2022-10-07T11:33:28.686Z,4.90
2022-10-07T11:35:59.273Z,3.30
2022-10-07T11:38:31.774Z,4.10
2022-10-07T11:41:08.191Z,3.20
2022-10-07T11:43:56.885Z,2.30
2022-10-07T11:46:36.369Z,5.20
2022-10-07T11:49:26.980Z,5.90
2022-10-07T11:51:58.279Z,6.40
2022-10-07T11:54:29.698Z,2.50
2022-10-07T11:56:58.796Z,4.00
2022-10-07T11:59:58.255Z,4.40
2022-10-07T12:02:28.078Z,5.80
2022-10-07T12:04:55.723Z,3.50
2022-10-07T12:07:35.050Z,7.80
2022-10-07T12:10:01.900Z,5.40
2022-10-07T12:12:44.777Z,7.70
2022-10-07T12:15:33.732Z,3.10
2022-10-07T12:18:06.085Z,5.40
2022-10-07T12:20:53.853Z,2.30
2022-10-07T12:23:22.207Z,11.20
2022-10-07T12:26:30.398Z,5.40
2022-10-07T12:28:57.712Z,3.70
2022-10-07T12:31:24.689Z,4.40
2022-10-07T12:33:59.201Z,3.80
2022-10-07T12:36:27.839Z,7.00
2022-10-07T12:38:56.419Z,2.90
2022-10-07T12:41:25.292Z,3.30
2022-10-07T12:44:08.469Z,2.40
2022-10-07T12:46:42.231Z,2.60
2022-10-07T12:49:15.214Z,2.00
2022-10-07T12:51:43.035Z,2.50
2022-10-07T12:54:32.306Z,1.80
2022-10-07T12:56:59.246Z,2.50
2022-10-07T12:59:44.660Z,1.90
2022-10-07T13:02:55.163Z,4.50
2022-10-07T13:05:56.174Z,3.30
2022-10-07T13:08:53.700Z,4.10
2022-10-07T13:11:40.150Z,7.30
2022-10-07T13:14:33.369Z,4.50
2022-10-07T13:17:25.138Z,2.60
2022-10-07T13:19:58.178Z,2.50
2022-10-07T13:22:25.104Z,4.00
2022-10-07T13:24:56.582Z,2.70
2022-10-07T13:27:28.263Z,4.10
2022-10-07T13:29:59.396Z,5.00
2022-10-07T13:32:30.630Z,3.50
2022-10-07T13:34:58.056Z,3.40
2022-10-07T13:37:51.798Z,3.00
2022-10-07T13:40:21.141Z,5.40
2022-10-07T13:43:04.548Z,6.30
2022-10-07T13:45:33.305Z,2.30
2022-10-07T13:50:29.448Z,4.70
2022-10-07T13:52:57.502Z,6.00
2022-10-07T13:55:32.257Z,3.20
2022-10-07T14:00:28.295Z,4.10
2022-10-07T14:02:55.393Z,5.00
2022-10-07T14:05:28.550Z,4.70
2022-10-07T14:07:59.976Z,2.80
2022-10-07T14:10:29.428Z,2.50
2022-10-07T14:13:07.493Z,2.90
2022-10-07T14:15:36.811Z,3.70
2022-10-07T14:18:08.451Z,4.40
2022-10-07T14:20:44.818Z,5.30
2022-10-07T14:23:25.166Z,7.00
2022-10-07T14:28:23.313Z,5.80
2022-10-07T14:31:27.392Z,5.10
2022-10-07T14:34:33.272Z,7.80
2022-10-07T14:37:26.226Z,6.80
2022-10-07T14:39:56.482Z,3.40
2022-10-07T14:42:27.560Z,3.50
2022-10-07T14:44:56.034Z,5.10
2022-10-07T14:47:25.034Z,6.50
2022-10-07T14:49:52.886Z,3.70
2022-10-07T14:52:23.101Z,2.70
2022-10-07T14:54:52.780Z,4.40
2022-10-07T14:57:20.039Z,4.60
2022-10-07T14:59:50.072Z,5.20
2022-10-07T15:02:17.416Z,5.30
2022-10-07T15:04:45.618Z,4.20
2022-10-07T15:07:13.900Z,5.10
2022-10-07T15:09:41.470Z,7.90
2022-10-07T15:12:10.583Z,3.70
2022-10-07T15:14:39.417Z,6.00
2022-10-07T15:17:06.740Z,5.80
2022-10-07T15:19:35.980Z,7.30
2022-10-07T15:22:02.704Z,2.80
2022-10-07T15:24:31.753Z,6.00
2022-10-07T15:26:59.169Z,3.30
2022-10-07T15:29:26.162Z,3.50
2022-10-07T15:31:53.074Z,8.20
2022-10-07T15:34:20.032Z,4.00
2022-10-07T15:36:48.741Z,7.00
2022-10-07T15:39:16.168Z,6.00
2022-10-07T15:41:43.494Z,6.50
2022-10-07T15:44:17.845Z,6.90
2022-10-07T15:46:46.863Z,5.10
2022-10-07T15:49:18.605Z,4.60
2022-10-07T15:51:46.772Z,8.00
2022-10-07T15:54:14.602Z,4.60
2022-10-07T15:56:45.490Z,11.10
2022-10-07T15:59:12.225Z,38.60
2022-10-07T16:01:40.760Z,36.90
2022-10-07T16:04:10.589Z,40.90
2022-10-07T16:06:38.724Z,69.40
2022-10-07T16:09:06.211Z,47.60
2022-10-07T16:11:34.296Z,40.10
2022-10-07T16:14:01.999Z,53.90
2022-10-07T16:18:59.039Z,57.00
2022-10-07T16:21:30.629Z,71.60
2022-10-07T16:24:18.794Z,115.00
2022-10-07T16:26:46.107Z,117.70
2022-10-07T16:29:32.946Z,135.20
2022-10-07T16:31:59.934Z,109.30
2022-10-07T16:34:28.336Z,88.90
2022-10-07T16:36:55.853Z,60.40
2022-10-07T16:39:23.338Z,56.20
2022-10-07T16:41:51.758Z,55.50
2022-10-07T16:44:19.462Z,48.20
2022-10-07T16:46:46.653Z,44.10
2022-10-07T16:49:15.183Z,35.30
2022-10-07T16:51:42.113Z,29.60
2022-10-07T16:54:15.827Z,24.70
2022-10-07T16:56:47.093Z,27.40
2022-10-07T16:59:19.720Z,25.20
2022-10-07T17:01:53.276Z,23.10
2022-10-07T17:04:20.318Z,20.40
2022-10-07T17:06:47.446Z,23.60
2022-10-07T17:09:14.591Z,23.70
2022-10-07T17:11:41.810Z,24.00
2022-10-07T17:14:16.825Z,19.70
2022-10-07T17:16:50.770Z,22.90
2022-10-07T17:19:19.728Z,24.90
2022-10-07T17:24:15.766Z,23.20
2022-10-07T17:26:42.838Z,22.30
2022-10-07T17:29:11.973Z,20.20
2022-10-07T17:31:40.120Z,25.20
2022-10-07T17:34:07.927Z,26.00
2022-10-07T17:36:36.140Z,27.10
2022-10-07T17:39:03.190Z,24.50
2022-10-07T17:41:31.647Z,28.70
2022-10-07T17:43:59.947Z,32.50
2022-10-07T17:46:28.206Z,29.50
2022-10-07T17:48:56.676Z,37.00
2022-10-07T17:51:27.418Z,37.70
2022-10-07T17:54:02.677Z,39.60
2022-10-07T17:56:30.298Z,42.30
2022-10-07T17:58:57.251Z,38.80
2022-10-07T18:01:27.478Z,45.40
2022-10-07T18:03:55.059Z,42.90
2022-10-07T18:06:25.214Z,41.30
2022-10-07T18:08:53.744Z,39.50
2022-10-07T18:11:20.546Z,35.40
2022-10-07T18:14:05.987Z,52.80
2022-10-07T18:16:33.719Z,49.30
2022-10-07T18:19:01.301Z,44.50
2022-10-07T18:21:29.943Z,48.20
2022-10-07T18:23:58.057Z,47.30
2022-10-07T18:26:24.860Z,48.90
2022-10-07T18:28:51.767Z,49.30
2022-10-07T18:31:19.206Z,50.90
2022-10-07T18:33:46.356Z,53.10
2022-10-07T18:36:15.704Z,55.00
2022-10-07T18:38:43.740Z,51.70
2022-10-07T18:41:12.401Z,49.90
2022-10-07T18:43:39.374Z,53.00
2022-10-07T18:46:17.059Z,61.20
2022-10-07T18:48:50.964Z,59.60
2022-10-07T18:51:17.799Z,70.30
2022-10-07T18:53:46.512Z,82.00
2022-10-07T18:56:18.085Z,97.30
2022-10-07T18:58:46.398Z,100.00
2022-10-07T19:01:23.713Z,88.70
2022-10-07T19:03:58.623Z,68.40
2022-10-07T19:06:26.318Z,67.20
2022-10-07T19:08:58.076Z,60.60
2022-10-07T19:11:30.620Z,57.30
2022-10-07T19:13:59.729Z,58.00
2022-10-07T19:16:37.383Z,58.00
2022-10-07T19:19:11.958Z,60.50
2022-10-07T19:21:39.593Z,48.00
2022-10-07T19:24:06.653Z,50.30
2022-10-07T19:26:35.793Z,49.30
2022-10-07T19:29:03.131Z,52.00
2022-10-07T19:31:32.099Z,57.00
2022-10-07T19:34:03.025Z,58.20
2022-10-07T19:36:31.152Z,58.30
2022-10-07T19:38:58.843Z,56.20
2022-10-07T19:41:28.995Z,60.10
2022-10-07T19:43:56.151Z,58.70
2022-10-07T19:46:23.740Z,64.80
2022-10-07T19:48:50.728Z,57.80
2022-10-07T19:51:19.359Z,51.60
2022-10-07T19:53:47.353Z,57.10
2022-10-07T19:56:22.506Z,57.50
2022-10-07T19:58:54.084Z,63.30
2022-10-07T20:01:22.768Z,63.70
2022-10-07T20:03:50.667Z,66.60
2022-10-07T20:06:17.482Z,70.30
2022-10-07T20:08:46.522Z,75.10
2022-10-07T20:11:14.313Z,78.60
2022-10-07T20:13:41.357Z,75.60
2022-10-07T20:16:09.884Z,75.40
2022-10-07T20:18:38.767Z,75.10
2022-10-07T20:21:10.736Z,80.30
2022-10-07T20:23:41.448Z,68.30
2022-10-07T20:26:09.989Z,65.40
2022-10-07T20:28:38.809Z,68.20
2022-10-07T20:31:07.071Z,71.40
2022-10-07T20:33:40.842Z,79.20
2022-10-07T20:36:08.417Z,81.10
2022-10-07T20:38:54.515Z,91.60
2022-10-07T20:41:40.954Z,83.40
2022-10-07T20:44:08.413Z,87.30
2022-10-07T20:46:37.728Z,79.70
2022-10-07T20:51:53.148Z,77.20
2022-10-07T20:54:20.500Z,80.50
2022-10-07T20:56:47.497Z,85.90
2022-10-07T20:59:14.858Z,80.20
2022-10-07T21:01:42.481Z,82.40
2022-10-07T21:04:14.133Z,75.10
2022-10-07T21:06:42.690Z,73.40
2022-10-07T21:09:10.112Z,72.70
2022-10-07T21:11:37.625Z,67.70
2022-10-07T21:14:04.884Z,64.00
2022-10-07T21:16:32.422Z,61.20
2022-10-07T21:19:00.351Z,62.20
2022-10-07T21:21:27.528Z,59.30
2022-10-07T21:23:54.257Z,48.60
2022-10-07T21:26:21.539Z,46.40
2022-10-07T21:28:48.542Z,44.00
2022-10-07T21:31:17.606Z,44.00
2022-10-07T21:36:17.543Z,42.60
2022-10-07T21:38:45.385Z,44.40
2022-10-07T21:41:23.192Z,42.60
2022-10-07T21:43:56.944Z,43.00
2022-10-07T21:46:25.205Z,40.90
2022-10-07T21:48:54.589Z,31.50
2022-10-07T21:51:22.227Z,34.10
2022-10-07T21:53:53.176Z,27.50
2022-10-07T21:56:20.115Z,27.30
2022-10-07T21:58:49.300Z,30.40
2022-10-07T22:01:17.309Z,31.70
2022-10-07T22:03:53.117Z,35.80
2022-10-07T22:06:21.487Z,36.00
2022-10-07T22:08:48.219Z,48.40
2022-10-07T22:11:19.521Z,63.80
2022-10-07T22:13:51.661Z,49.70
2022-10-07T22:16:19.039Z,33.70
2022-10-07T22:18:49.452Z,33.50
2022-10-07T22:21:29.581Z,36.50
2022-10-07T22:23:58.249Z,31.10
2022-10-07T22:26:27.053Z,29.00
2022-10-07T22:28:54.940Z,31.50
2022-10-07T22:31:22.215Z,31.40
2022-10-07T22:33:53.553Z,30.70
2022-10-07T22:36:20.605Z,27.40
2022-10-07T22:38:47.368Z,26.10
2022-10-07T22:41:15.792Z,23.80
2022-10-07T22:43:45.722Z,26.60
2022-10-07T22:46:17.040Z,23.10
2022-10-07T22:48:44.030Z,21.20
2022-10-07T22:51:12.532Z,21.30
2022-10-07T22:53:41.042Z,25.60
2022-10-07T22:56:11.881Z,28.70
2022-10-07T22:58:40.058Z,31.10
2022-10-07T23:01:11.808Z,30.20
2022-10-07T23:03:43.884Z,20.70
2022-10-07T23:06:11.891Z,27.00
2022-10-07T23:08:39.093Z,30.40
2022-10-07T23:11:07.012Z,30.40
2022-10-07T23:13:35.254Z,32.00
2022-10-07T23:16:12.299Z,29.50
2022-10-07T23:18:39.624Z,28.60
2022-10-07T23:21:08.252Z,30.90
2022-10-07T23:23:36.542Z,29.10
2022-10-07T23:26:11.375Z,31.00
2022-10-07T23:28:38.857Z,32.90
2022-10-07T23:31:08.251Z,38.60
2022-10-07T23:33:35.594Z,34.20
2022-10-07T23:36:05.520Z,37.00
2022-10-07T23:38:33.333Z,36.90
2022-10-07T23:41:00.802Z,39.00
2022-10-07T23:43:27.827Z,37.90
2022-10-07T23:45:54.572Z,38.70
2022-10-07T23:48:21.346Z,42.30
2022-10-07T23:50:49.744Z,37.00
2022-10-07T23:53:20.236Z,48.30
2022-10-07T23:55:50.974Z,42.10
2022-10-07T23:58:20.726Z,42.30
